createdAt,value
2023-05-29T00:01:28.289Z,98365.84
2023-05-29T00:03:54.927Z,98363.41
2023-05-29T00:06:21.505Z,98360.22
2023-05-29T00:08:48.033Z,98361.19
2023-05-29T00:11:14.569Z,98358.28
2023-05-29T00:13:41.437Z,98360.09
2023-05-29T00:16:10.267Z,98368.28
2023-05-29T00:18:37.136Z,98365.16
2023-05-29T00:21:03.812Z,98368.81
2023-05-29T00:23:30.255Z,98361.28
2023-05-29T00:25:56.846Z,98354.19
2023-05-29T00:28:23.489Z,98350.81
2023-05-29T00:30:50.033Z,98344.81
2023-05-29T00:33:16.622Z,98340.53
2023-05-29T00:35:43.174Z,98341.78
2023-05-29T00:38:09.649Z,98344.91
2023-05-29T00:40:36.130Z,98349.19
2023-05-29T00:43:02.647Z,98348.25
2023-05-29T00:45:29.210Z,98353.34
2023-05-29T00:47:55.845Z,98351.53
2023-05-29T00:50:22.957Z,98351.19
2023-05-29T00:52:49.429Z,98350.66
2023-05-29T00:55:16.833Z,98356.16
2023-05-29T00:57:43.828Z,98357.84
2023-05-29T01:00:14.807Z,98352.59
2023-05-29T01:02:45.980Z,98356.31
2023-05-29T01:05:13.406Z,98357.28
2023-05-29T01:07:39.953Z,98346.13
2023-05-29T01:10:07.535Z,98360.09
2023-05-29T01:12:44.926Z,98360.28
2023-05-29T01:15:17.325Z,98360.38
2023-05-29T01:18:21.594Z,98355.44
2023-05-29T01:20:53.908Z,98357.31
2023-05-29T01:23:46.891Z,98365.28
2023-05-29T01:26:32.921Z,98370.69
2023-05-29T01:29:03.065Z,98372.56
2023-05-29T01:31:31.094Z,98364.41
2023-05-29T01:34:00.487Z,98367.00
2023-05-29T01:36:27.910Z,98369.66
2023-05-29T01:38:57.219Z,98363.94
2023-05-29T01:41:25.425Z,98362.91
2023-05-29T01:43:54.265Z,98362.25
2023-05-29T01:46:22.526Z,98361.47
2023-05-29T01:48:49.146Z,98358.91
2023-05-29T01:51:16.068Z,98358.34
2023-05-29T01:53:43.846Z,98357.44
2023-05-29T01:56:11.226Z,98351.63
2023-05-29T01:58:39.622Z,98344.75
2023-05-29T02:01:07.408Z,98351.63
2023-05-29T02:03:34.878Z,98345.84
2023-05-29T02:06:01.569Z,98351.00
2023-05-29T02:08:28.238Z,98363.19
2023-05-29T02:10:55.110Z,98351.25
2023-05-29T02:13:22.080Z,98352.91
2023-05-29T02:15:48.640Z,98355.72
2023-05-29T02:18:18.385Z,98348.00
2023-05-29T02:20:45.250Z,98345.59
2023-05-29T02:23:11.873Z,98336.22
2023-05-29T02:25:38.375Z,98343.16
2023-05-29T02:28:04.853Z,98341.53
2023-05-29T02:30:31.683Z,98337.09
2023-05-29T02:32:58.421Z,98341.63
2023-05-29T02:35:24.990Z,98343.56
2023-05-29T02:37:51.908Z,98343.63
2023-05-29T02:40:18.924Z,98333.31
2023-05-29T02:42:45.854Z,98330.81
2023-05-29T02:45:12.497Z,98335.44
2023-05-29T02:47:39.432Z,98336.31
2023-05-29T02:50:06.544Z,98344.03
2023-05-29T02:52:33.543Z,98335.41
2023-05-29T02:55:00.009Z,98345.81
2023-05-29T02:57:26.802Z,98352.84
2023-05-29T02:59:53.711Z,98345.31
2023-05-29T03:02:20.281Z,98349.59
2023-05-29T03:04:47.112Z,98343.75
2023-05-29T03:07:13.776Z,98349.72
2023-05-29T03:09:40.229Z,98345.44
2023-05-29T03:12:06.961Z,98347.19
2023-05-29T03:14:36.942Z,98342.41
2023-05-29T03:17:07.940Z,98338.09
2023-05-29T03:19:34.412Z,98346.97
2023-05-29T03:22:00.882Z,98343.53
2023-05-29T03:24:28.569Z,98347.78
2023-05-29T03:26:55.050Z,98347.84
2023-05-29T03:29:21.496Z,98346.97
2023-05-29T03:31:48.142Z,98343.50
2023-05-29T03:34:14.923Z,98344.19
2023-05-29T03:36:41.353Z,98343.16
2023-05-29T03:39:07.756Z,98356.00
2023-05-29T03:41:34.235Z,98348.16
2023-05-29T03:44:00.712Z,98351.59
2023-05-29T03:46:28.458Z,98352.34
2023-05-29T03:48:54.969Z,98349.13
2023-05-29T03:51:21.434Z,98355.06
2023-05-29T03:53:47.856Z,98354.78
2023-05-29T03:56:17.300Z,98352.16
2023-05-29T03:58:43.794Z,98351.94
2023-05-29T04:01:10.523Z,98361.22
2023-05-29T04:03:37.534Z,98366.22
2023-05-29T04:06:04.230Z,98370.78
2023-05-29T04:08:30.858Z,98369.16
2023-05-29T04:10:57.345Z,98372.19
2023-05-29T04:13:23.851Z,98373.56
2023-05-29T04:15:53.817Z,98381.47
2023-05-29T04:18:21.643Z,98385.59
2023-05-29T04:20:50.667Z,98381.44
2023-05-29T04:23:17.190Z,98397.34
2023-05-29T04:25:44.935Z,98403.31
2023-05-29T04:28:11.815Z,98402.31
2023-05-29T04:30:40.167Z,98403.00
2023-05-29T04:33:06.756Z,98394.28
2023-05-29T04:35:33.314Z,98395.34
2023-05-29T04:37:59.796Z,98396.28
2023-05-29T04:40:26.238Z,98402.63
2023-05-29T04:42:53.696Z,98407.75
2023-05-29T04:45:21.886Z,98414.38
2023-05-29T04:47:48.539Z,98420.88
2023-05-29T04:50:17.567Z,98429.81
2023-05-29T04:52:44.355Z,98434.91
2023-05-29T04:55:11.617Z,98427.78
2023-05-29T04:57:38.357Z,98435.53
2023-05-29T05:00:08.075Z,98429.09
2023-05-29T05:02:34.730Z,98427.31
2023-05-29T05:05:01.361Z,98431.41
2023-05-29T05:07:27.786Z,98438.72
2023-05-29T05:09:56.566Z,98436.41
2023-05-29T05:12:22.995Z,98432.13
2023-05-29T05:14:49.452Z,98441.19
2023-05-29T05:17:15.921Z,98446.53
2023-05-29T05:19:42.416Z,98449.72
2023-05-29T05:22:08.878Z,98459.63
2023-05-29T05:24:36.129Z,98461.56
2023-05-29T05:27:04.346Z,98468.13
2023-05-29T05:29:31.006Z,98466.34
2023-05-29T05:31:57.476Z,98468.78
2023-05-29T05:34:23.971Z,98473.22
2023-05-29T05:36:50.516Z,98481.66
2023-05-29T05:39:17.072Z,98474.78
2023-05-29T05:41:43.582Z,98478.72
2023-05-29T05:44:10.044Z,98481.66
2023-05-29T05:46:36.633Z,98473.47
2023-05-29T05:49:05.406Z,98466.88
2023-05-29T05:51:32.147Z,98477.38
2023-05-29T05:53:58.565Z,98484.50
2023-05-29T05:56:25.039Z,98484.38
2023-05-29T05:58:51.521Z,98479.78
2023-05-29T06:01:17.990Z,98487.31
2023-05-29T06:03:44.569Z,98481.72
2023-05-29T06:06:14.107Z,98478.75
2023-05-29T06:08:45.517Z,98481.28
2023-05-29T06:11:12.503Z,98486.66
2023-05-29T06:13:39.039Z,98486.56
2023-05-29T06:16:14.400Z,98484.34
2023-05-29T06:18:41.015Z,98482.56
2023-05-29T06:21:08.411Z,98487.72
2023-05-29T06:23:35.630Z,98483.25
2023-05-29T06:26:04.428Z,98481.59
2023-05-29T06:28:31.227Z,98488.66
2023-05-29T06:30:57.978Z,98486.22
2023-05-29T06:33:25.229Z,98488.25
2023-05-29T06:35:51.708Z,98483.78
2023-05-29T06:38:18.203Z,98495.09
2023-05-29T06:40:44.654Z,98497.06
2023-05-29T06:43:11.669Z,98495.91
2023-05-29T06:45:41.783Z,98499.38
2023-05-29T06:48:08.384Z,98492.41
2023-05-29T06:50:35.029Z,98496.63
2023-05-29T06:53:01.617Z,98501.22
2023-05-29T06:55:28.251Z,98503.28
2023-05-29T06:57:54.707Z,98499.63
2023-05-29T07:00:21.250Z,98504.78
2023-05-29T07:02:47.752Z,98503.31
2023-05-29T07:05:14.286Z,98505.72
2023-05-29T07:07:40.838Z,98509.28
2023-05-29T07:10:07.529Z,98508.38
2023-05-29T07:12:34.013Z,98504.19
2023-05-29T07:15:00.503Z,98504.16
2023-05-29T07:17:27.132Z,98499.66
2023-05-29T07:19:55.239Z,98509.13
2023-05-29T07:22:21.765Z,98507.84
2023-05-29T07:24:48.217Z,98511.84
2023-05-29T07:27:14.686Z,98506.84
2023-05-29T07:29:41.144Z,98503.13
2023-05-29T07:32:07.645Z,98506.44
2023-05-29T07:34:34.181Z,98512.47
2023-05-29T07:37:02.555Z,98513.09
2023-05-29T07:39:29.324Z,98504.97
2023-05-29T07:41:55.949Z,98501.50
2023-05-29T07:44:22.900Z,98511.53
2023-05-29T07:46:49.577Z,98505.41
2023-05-29T07:49:16.741Z,98501.56
2023-05-29T07:51:43.294Z,98496.81
2023-05-29T07:54:09.868Z,98500.56
2023-05-29T07:56:36.599Z,98502.19
2023-05-29T07:59:04.268Z,98496.44
2023-05-29T08:01:30.968Z,98510.81
2023-05-29T08:03:57.597Z,98510.06
2023-05-29T08:06:24.475Z,98509.88
2023-05-29T08:08:53.024Z,98522.66
2023-05-29T08:11:20.294Z,98515.91
2023-05-29T08:13:46.865Z,98510.75
2023-05-29T08:16:15.462Z,98506.00
2023-05-29T08:18:42.030Z,98507.47
2023-05-29T08:21:10.224Z,98507.63
2023-05-29T08:23:36.984Z,98501.63
2023-05-29T08:26:04.490Z,98504.91
2023-05-29T08:28:30.946Z,98497.34
2023-05-29T08:30:57.549Z,98497.88
2023-05-29T08:33:24.041Z,98503.41
2023-05-29T08:35:50.515Z,98504.97
2023-05-29T08:38:17.019Z,98506.44
2023-05-29T08:40:43.502Z,98504.13
2023-05-29T08:43:23.380Z,98499.38
2023-05-29T08:45:54.658Z,98501.91
2023-05-29T08:48:24.927Z,98494.13
2023-05-29T08:50:54.946Z,98494.97
2023-05-29T08:53:25.804Z,98488.53
2023-05-29T08:55:56.955Z,98491.69
2023-05-29T08:58:24.486Z,98487.66
2023-05-29T09:00:51.793Z,98483.47
2023-05-29T09:03:19.025Z,98490.09
2023-05-29T09:05:45.745Z,98481.00
2023-05-29T09:08:13.240Z,98482.97
2023-05-29T09:10:42.532Z,98482.44
2023-05-29T09:13:10.964Z,98476.91
2023-05-29T09:15:39.874Z,98487.44
2023-05-29T09:18:06.660Z,98475.25
2023-05-29T09:20:33.545Z,98479.81
2023-05-29T09:23:08.589Z,98476.03
2023-05-29T09:25:40.315Z,98478.78
2023-05-29T09:28:09.274Z,98477.13
2023-05-29T09:30:40.998Z,98476.06
2023-05-29T09:33:09.412Z,98479.66
2023-05-29T09:35:43.898Z,98483.31
2023-05-29T09:38:14.200Z,98487.81
2023-05-29T09:40:46.678Z,98490.31
2023-05-29T09:43:18.349Z,98498.59
2023-05-29T09:45:46.431Z,98491.50
2023-05-29T09:48:19.961Z,98492.56
2023-05-29T09:50:49.242Z,98487.09
2023-05-29T09:53:20.500Z,98489.69
2023-05-29T09:55:48.604Z,98486.28
2023-05-29T09:58:16.877Z,98488.25
2023-05-29T10:00:44.036Z,98489.09
2023-05-29T10:03:17.788Z,98488.13
2023-05-29T10:05:47.809Z,98479.34
2023-05-29T10:08:16.008Z,98473.97
2023-05-29T10:10:49.153Z,98475.28
2023-05-29T10:13:16.272Z,98468.16
2023-05-29T10:15:46.263Z,98473.03
2023-05-29T10:18:27.487Z,98469.97
2023-05-29T10:20:58.967Z,98471.50
2023-05-29T10:23:27.660Z,98468.97
2023-05-29T10:26:05.743Z,98467.19
2023-05-29T10:28:32.852Z,98459.94
2023-05-29T10:31:11.159Z,98460.47
2023-05-29T10:34:04.078Z,98460.03
2023-05-29T10:36:43.700Z,98455.91
2023-05-29T10:39:10.488Z,98465.47
2023-05-29T10:41:40.876Z,98458.56
2023-05-29T10:44:42.830Z,98459.84
2023-05-29T10:47:10.116Z,98455.31
2023-05-29T10:49:36.709Z,98453.38
2023-05-29T10:52:05.879Z,98462.34
2023-05-29T10:54:48.486Z,98461.50
2023-05-29T10:57:15.135Z,98459.47
2023-05-29T10:59:41.601Z,98456.66
2023-05-29T11:02:09.870Z,98455.50
2023-05-29T11:04:37.996Z,98447.41
2023-05-29T11:07:07.423Z,98449.38
2023-05-29T11:09:38.528Z,98448.63
2023-05-29T11:12:26.872Z,98448.38
2023-05-29T11:15:08.382Z,98444.88
2023-05-29T11:17:39.391Z,98449.25
2023-05-29T11:20:07.680Z,98440.41
2023-05-29T11:23:00.478Z,98448.88
2023-05-29T11:25:28.453Z,98442.59
2023-05-29T11:27:55.145Z,98437.31
2023-05-29T11:30:22.855Z,98438.84
2023-05-29T11:32:50.300Z,98444.78
2023-05-29T11:35:20.465Z,98436.56
2023-05-29T11:37:47.683Z,98440.94
2023-05-29T11:40:18.996Z,98432.50
2023-05-29T11:42:48.863Z,98441.38
2023-05-29T11:45:17.903Z,98439.13
2023-05-29T11:47:54.860Z,98427.84
2023-05-29T11:50:23.250Z,98427.97
2023-05-29T11:52:50.186Z,98426.25
2023-05-29T11:55:16.863Z,98433.16
2023-05-29T11:57:43.486Z,98428.19
2023-05-29T12:00:14.735Z,98436.66
2023-05-29T12:02:43.639Z,98433.03
2023-05-29T12:05:11.303Z,98438.34
2023-05-29T12:07:38.064Z,98431.25
2023-05-29T12:10:12.419Z,98426.47
2023-05-29T12:12:40.464Z,98429.88
2023-05-29T12:15:09.208Z,98426.50
2023-05-29T12:17:36.728Z,98433.06
2023-05-29T12:20:07.312Z,98424.28
2023-05-29T12:22:38.353Z,98420.69
2023-05-29T12:25:16.416Z,98420.69
2023-05-29T12:27:47.893Z,98426.53
2023-05-29T12:30:31.490Z,98416.81
2023-05-29T12:33:01.477Z,98418.47
2023-05-29T12:35:29.672Z,98419.88
2023-05-29T12:37:59.487Z,98423.47
2023-05-29T12:40:30.798Z,98420.09
2023-05-29T12:43:07.794Z,98413.88
2023-05-29T12:45:35.246Z,98408.91
2023-05-29T12:48:04.230Z,98399.28
2023-05-29T12:50:41.456Z,98403.59
2023-05-29T12:53:12.864Z,98409.03
2023-05-29T12:55:42.184Z,98406.53
2023-05-29T12:58:10.438Z,98400.69
2023-05-29T13:00:41.599Z,98403.59
2023-05-29T13:03:09.258Z,98405.38
2023-05-29T13:05:36.012Z,98398.19
2023-05-29T13:08:02.855Z,98399.56
2023-05-29T13:10:29.524Z,98402.19
2023-05-29T13:12:56.641Z,98393.31
2023-05-29T13:15:27.574Z,98400.38
2023-05-29T13:17:54.529Z,98397.06
2023-05-29T13:20:22.157Z,98395.34
2023-05-29T13:22:51.423Z,98388.47
2023-05-29T13:25:21.497Z,98389.25
2023-05-29T13:27:49.744Z,98384.53
2023-05-29T13:30:17.239Z,98378.44
2023-05-29T13:32:43.920Z,98374.84
2023-05-29T13:35:11.173Z,98381.66
2023-05-29T13:37:38.661Z,98381.81
2023-05-29T13:40:06.478Z,98378.72
2023-05-29T13:42:33.600Z,98383.19
2023-05-29T13:45:00.197Z,98374.16
2023-05-29T13:47:29.807Z,98379.84
2023-05-29T13:49:56.885Z,98385.69
2023-05-29T13:52:23.928Z,98381.41
2023-05-29T13:54:50.643Z,98368.88
2023-05-29T13:57:17.362Z,98379.44
2023-05-29T13:59:46.988Z,98377.63
2023-05-29T14:02:13.845Z,98378.31
2023-05-29T14:04:40.665Z,98377.06
2023-05-29T14:07:07.241Z,98365.91
2023-05-29T14:09:33.905Z,98362.16
2023-05-29T14:12:01.529Z,98364.38
2023-05-29T14:14:28.188Z,98353.66
2023-05-29T14:16:55.876Z,98349.78
2023-05-29T14:19:25.590Z,98345.09
2023-05-29T14:21:52.631Z,98354.25
2023-05-29T14:24:19.469Z,98352.19
2023-05-29T14:26:48.411Z,98346.78
2023-05-29T14:29:15.934Z,98352.06
2023-05-29T14:31:43.776Z,98358.72
2023-05-29T14:34:11.264Z,98361.38
2023-05-29T14:36:38.155Z,98362.63
2023-05-29T14:39:05.620Z,98358.78
2023-05-29T14:41:32.311Z,98358.13
2023-05-29T14:43:59.800Z,98363.16
2023-05-29T14:46:27.908Z,98355.41
2023-05-29T14:48:55.464Z,98354.16
2023-05-29T14:51:22.272Z,98355.13
2023-05-29T14:53:48.937Z,98359.63
2023-05-29T14:56:15.542Z,98352.59
2023-05-29T14:58:42.380Z,98354.56
2023-05-29T15:01:09.499Z,98344.81
2023-05-29T15:03:36.520Z,98345.28
2023-05-29T15:06:04.506Z,98348.38
2023-05-29T15:08:35.170Z,98349.91
2023-05-29T15:11:03.974Z,98350.88
2023-05-29T15:13:33.908Z,98346.44
2023-05-29T15:16:00.755Z,98342.00
2023-05-29T15:18:28.061Z,98341.44
2023-05-29T15:20:54.968Z,98348.66
2023-05-29T15:23:24.600Z,98340.59
2023-05-29T15:25:51.564Z,98345.56
2023-05-29T15:28:20.940Z,98337.38
2023-05-29T15:30:47.594Z,98337.28
2023-05-29T15:33:25.227Z,98334.91
2023-05-29T15:36:01.497Z,98333.53
2023-05-29T15:38:28.108Z,98329.34
2023-05-29T15:40:54.755Z,98326.03
2023-05-29T15:43:21.458Z,98331.03
2023-05-29T15:45:49.607Z,98328.66
2023-05-29T15:48:16.710Z,98331.13
2023-05-29T15:50:43.523Z,98323.91
2023-05-29T15:53:10.371Z,98328.47
2023-05-29T15:55:37.049Z,98320.53
2023-05-29T15:58:03.766Z,98325.50
2023-05-29T16:00:31.276Z,98320.25
2023-05-29T16:02:58.259Z,98325.41
2023-05-29T16:05:24.907Z,98322.69
2023-05-29T16:07:53.807Z,98330.59
2023-05-29T16:10:25.870Z,98332.25
2023-05-29T16:12:52.531Z,98323.50
2023-05-29T16:15:20.387Z,98324.25
2023-05-29T16:17:47.573Z,98331.34
2023-05-29T16:20:16.446Z,98319.25
2023-05-29T16:22:43.291Z,98332.28
2023-05-29T16:25:10.897Z,98329.19
2023-05-29T16:27:37.985Z,98339.66
2023-05-29T16:30:05.911Z,98337.41
2023-05-29T16:32:32.519Z,98338.50
2023-05-29T16:34:59.265Z,98331.94
2023-05-29T16:37:27.011Z,98345.25
2023-05-29T16:39:55.282Z,98340.25
2023-05-29T16:42:21.763Z,98338.81
2023-05-29T16:44:50.515Z,98339.91
2023-05-29T16:47:18.820Z,98340.31
2023-05-29T16:49:45.295Z,98335.88
2023-05-29T16:52:12.180Z,98338.47
2023-05-29T16:54:41.670Z,98336.53
2023-05-29T16:57:09.911Z,98339.97
2023-05-29T16:59:37.271Z,98348.75
2023-05-29T17:02:04.298Z,98332.09
2023-05-29T17:04:30.816Z,98336.41
2023-05-29T17:06:57.347Z,98333.66
2023-05-29T17:09:27.847Z,98347.13
2023-05-29T17:11:55.661Z,98345.47
2023-05-29T17:14:23.649Z,98341.28
2023-05-29T17:16:56.115Z,98347.13
2023-05-29T17:19:28.631Z,98352.88
2023-05-29T17:21:55.298Z,98354.63
2023-05-29T17:24:21.900Z,98353.91
2023-05-29T17:26:48.424Z,98359.75
2023-05-29T17:29:16.918Z,98362.63
2023-05-29T17:31:44.275Z,98357.38
2023-05-29T17:34:13.385Z,98355.25
2023-05-29T17:36:39.919Z,98362.53
2023-05-29T17:39:06.761Z,98364.69
2023-05-29T17:41:33.411Z,98364.22
2023-05-29T17:44:00.244Z,98358.72
2023-05-29T17:46:26.941Z,98372.97
2023-05-29T17:48:53.588Z,98365.81
2023-05-29T17:51:22.943Z,98372.25
2023-05-29T17:53:50.285Z,98372.13
2023-05-29T17:56:29.368Z,98370.78
2023-05-29T17:58:56.016Z,98377.44
2023-05-29T18:01:22.638Z,98378.47
2023-05-29T18:03:49.692Z,98374.91
2023-05-29T18:06:16.432Z,98378.47
2023-05-29T18:08:45.741Z,98380.63
2023-05-29T18:11:12.298Z,98383.38
2023-05-29T18:13:38.844Z,98382.50
2023-05-29T18:16:10.318Z,98382.69
2023-05-29T18:18:37.421Z,98389.81
2023-05-29T18:21:04.132Z,98389.28
2023-05-29T18:23:31.249Z,98391.09
2023-05-29T18:25:57.900Z,98384.41
2023-05-29T18:28:27.496Z,98389.03
2023-05-29T18:30:55.821Z,98397.13
2023-05-29T18:33:22.447Z,98393.38
2023-05-29T18:35:48.967Z,98402.63
2023-05-29T18:38:15.538Z,98400.59
2023-05-29T18:40:43.221Z,98404.97
2023-05-29T18:43:10.724Z,98407.31
2023-05-29T18:45:37.345Z,98403.78
2023-05-29T18:48:04.413Z,98401.84
2023-05-29T18:50:30.906Z,98409.19
2023-05-29T18:52:57.448Z,98404.38
2023-05-29T18:55:23.983Z,98404.59
2023-05-29T18:57:50.504Z,98410.13
2023-05-29T19:00:17.200Z,98415.88
2023-05-29T19:02:53.289Z,98419.03
2023-05-29T19:05:23.043Z,98417.03
2023-05-29T19:07:51.144Z,98419.84
2023-05-29T19:10:18.791Z,98427.34
2023-05-29T19:12:46.974Z,98433.09
2023-05-29T19:15:16.316Z,98435.25
2023-05-29T19:17:43.027Z,98444.22
2023-05-29T19:20:17.890Z,98439.88
2023-05-29T19:22:51.626Z,98445.63
2023-05-29T19:25:18.585Z,98449.63
2023-05-29T19:27:46.651Z,98446.63
2023-05-29T19:30:14.881Z,98454.03
2023-05-29T19:32:41.582Z,98455.53
2023-05-29T19:35:09.689Z,98468.06
2023-05-29T19:37:36.557Z,98467.41
2023-05-29T19:40:07.037Z,98484.59
2023-05-29T19:42:33.544Z,98473.41
2023-05-29T19:45:00.068Z,98482.28
2023-05-29T19:47:26.813Z,98484.88
2023-05-29T19:49:53.354Z,98485.84
2023-05-29T19:52:19.896Z,98488.81
2023-05-29T19:54:47.051Z,98484.06
2023-05-29T19:57:13.985Z,98501.88
2023-05-29T19:59:43.634Z,98500.38
2023-05-29T20:02:11.460Z,98503.44
2023-05-29T20:04:42.932Z,98508.97
2023-05-29T20:07:09.536Z,98516.56
2023-05-29T20:09:36.070Z,98514.59
2023-05-29T20:12:03.243Z,98519.00
2023-05-29T20:14:29.879Z,98522.53
2023-05-29T20:16:56.464Z,98527.84
2023-05-29T20:19:24.095Z,98518.69
2023-05-29T20:21:50.609Z,98527.53
2023-05-29T20:24:17.241Z,98532.00
2023-05-29T20:26:43.682Z,98526.03
2023-05-29T20:29:10.426Z,98524.25
2023-05-29T20:31:36.934Z,98538.59
2023-05-29T20:34:03.902Z,98534.97
2023-05-29T20:36:30.824Z,98525.63
2023-05-29T20:38:59.739Z,98535.66
2023-05-29T20:41:26.509Z,98534.25
2023-05-29T20:43:54.737Z,98532.09
2023-05-29T20:46:24.184Z,98535.97
2023-05-29T20:48:50.771Z,98534.13
2023-05-29T20:51:17.492Z,98540.63
2023-05-29T20:53:45.736Z,98534.81
2023-05-29T20:56:12.434Z,98537.59
2023-05-29T20:58:39.169Z,98538.19
2023-05-29T21:01:09.186Z,98541.19
2023-05-29T21:03:46.423Z,98538.16
2023-05-29T21:06:13.569Z,98536.00
2023-05-29T21:08:40.181Z,98539.34
2023-05-29T21:11:06.969Z,98528.22
2023-05-29T21:13:34.255Z,98539.78
2023-05-29T21:16:00.978Z,98539.84
2023-05-29T21:18:27.897Z,98537.25
2023-05-29T21:20:54.620Z,98539.84
2023-05-29T21:23:21.486Z,98534.13
2023-05-29T21:25:47.981Z,98543.03
2023-05-29T21:28:14.723Z,98539.59
2023-05-29T21:30:41.576Z,98545.72
2023-05-29T21:33:08.224Z,98546.16
2023-05-29T21:35:37.973Z,98545.44
2023-05-29T21:38:04.510Z,98544.72
2023-05-29T21:40:31.313Z,98555.13
2023-05-29T21:42:58.300Z,98556.03
2023-05-29T21:45:24.878Z,98545.69
2023-05-29T21:47:51.804Z,98558.06
2023-05-29T21:50:19.461Z,98552.16
2023-05-29T21:52:46.266Z,98555.09
2023-05-29T21:55:13.110Z,98552.66
2023-05-29T21:57:39.583Z,98559.13
2023-05-29T22:00:09.720Z,98556.25
2023-05-29T22:02:36.828Z,98556.25
2023-05-29T22:05:04.980Z,98569.63
2023-05-29T22:07:32.003Z,98580.28
2023-05-29T22:09:58.560Z,98571.47
2023-05-29T22:12:26.250Z,98569.94
2023-05-29T22:14:56.053Z,98574.78
2023-05-29T22:17:22.591Z,98581.44
2023-05-29T22:20:07.122Z,98575.94
2023-05-29T22:22:34.261Z,98578.09
2023-05-29T22:25:02.159Z,98573.63
2023-05-29T22:27:28.636Z,98570.66
2023-05-29T22:29:55.102Z,98584.81
2023-05-29T22:32:22.076Z,98584.09
2023-05-29T22:34:48.871Z,98577.91
2023-05-29T22:37:15.394Z,98572.47
2023-05-29T22:39:42.384Z,98573.53
2023-05-29T22:42:09.326Z,98574.25
2023-05-29T22:44:35.869Z,98578.16
2023-05-29T22:47:02.429Z,98577.75
2023-05-29T22:49:28.975Z,98580.50
2023-05-29T22:51:57.574Z,98587.56
2023-05-29T22:54:25.065Z,98594.75
2023-05-29T22:56:51.974Z,98605.31
2023-05-29T22:59:18.835Z,98593.44
2023-05-29T23:01:45.414Z,98595.94
2023-05-29T23:04:12.299Z,98595.19
2023-05-29T23:06:40.548Z,98593.44
2023-05-29T23:09:08.016Z,98590.00
2023-05-29T23:11:34.555Z,98591.97
2023-05-29T23:14:01.276Z,98590.44
2023-05-29T23:16:27.992Z,98588.84
2023-05-29T23:19:01.559Z,98589.75
2023-05-29T23:21:36.877Z,98594.41
2023-05-29T23:24:03.493Z,98586.72
2023-05-29T23:26:40.048Z,98588.28
2023-05-29T23:29:10.983Z,98592.06
2023-05-29T23:31:43.277Z,98594.81
2023-05-29T23:34:19.430Z,98595.81
2023-05-29T23:36:50.480Z,98600.97
2023-05-29T23:39:19.447Z,98609.81
2023-05-29T23:41:48.348Z,98607.06
2023-05-29T23:44:24.188Z,98605.22
2023-05-29T23:46:51.601Z,98596.66
2023-05-29T23:49:18.194Z,98605.38
2023-05-29T23:51:49.855Z,98600.03
2023-05-29T23:54:16.609Z,98601.38
2023-05-29T23:56:45.783Z,98605.66
2023-05-29T23:59:15.291Z,98605.41
